Sábado 21 de mayo
Nivel de Alerta Fenómeno     Valor    ProbabilidadZona de avisosHora de comienzoHora de finalizaciónComentario
Amarilla
Temperaturas máximas
39 ºC40%-70%Campiña Sevillana21-05-2022 12:0021-05-2022 19:59Temperatura máxima: 39 ºC.

Informes METAR cercanos

 

LEZL - Sevilla (civ/Mil, Spain
Distancia de la estación: O 16km
Actualización: 21/05/2022 03:30
Despejado
Despejado
 Viento del ENE
Viento: ENE 15 km/h
Temperatura: 26°C
Rocío: 10°C
Humedad: 37%
Barómetro: 1013 hPa
Resumen: Despejado
Visibilidad: más de 10 km
2022/05/21 01:30 LEZL 210130Z AUTO 06008KT CAVOK 26/10 Q1013
LEMO - Moron (sp-Usafb), Spain
Distancia de la estación: SSE 27km
Actualización: 21/05/2022 03:30
Despejado
Despejado
 Viento del O
Viento: O 6 km/h
Temperatura: 19°C
Rocío: 11°C
Humedad: 60%
Barómetro: 1013 hPa
Resumen: Despejado
Visibilidad: más de 10 km
2022/05/21 01:30 LEMO 210130Z 28003KT 260V330 CAVOK 19/11 Q1013 NOSIG
 
LEJR - Jerez (civ/Mil), Spain
Distancia de la estación: SSO 78km
Actualización: 21/05/2022 03:30
Despejado
Despejado
 Viento del N
Viento: N 7 km/h
Temperatura: 26°C
Rocío: 9°C
Humedad: 34%
Barómetro: 1012 hPa
Resumen: Despejado
Visibilidad: más de 10 km
2022/05/21 01:30 LEJR 210130Z AUTO 35004KT 260V070 CAVOK 26/09 Q1012